Date,TemperatureHighF,TemperatureAvgF,TemperatureLowF,DewpointHighF,DewpointAvgF,DewpointLowF,HumidityHigh,HumidityAvg,HumidityLow,PressureMaxIn,PressureMinIn,WindSpeedMaxMPH,WindSpeedAvgMPH,GustSpeedMaxMPH,PrecipitationSumIn
2013-9-1,80.2,63.3,-0.2,62.1,55.2,-0.2,100,78,48,29.89,29.80,7,4,19,0.00
2013-9-2,-0.2,-0.2,-0.2,-0.2,-0.2,-0.2,100,100,100,0.00,40.00,0,0,5,0.00
2013-9-3,-0.2,-0.2,-0.2,-0.2,-0.2,-0.2,100,100,100,0.00,40.00,0,0,5,0.00
2013-9-4,-0.2,-0.2,-0.2,-0.2,-0.2,-0.2,100,100,100,0.00,-1.59,0,0,5,0.00
2013-9-5,-0.2,-0.2,-0.2,-0.2,-0.2,-0.2,100,100,100,0.00,-1.59,0,0,5,0.00
2013-9-6,-0.2,-0.2,-0.2,-0.2,-0.2,-0.2,100,100,100,0.00,40.00,0,0,5,0.00
2013-9-7,-0.2,-0.2,-0.2,-0.2,-0.2,-0.2,100,100,100,0.00,-1.59,0,0,5,0.00
2013-9-8,82.1,73.7,60.2,65.6,63.5,60.2,100,72,51,30.05,29.97,9,5,28,0.00
2013-9-9,79.6,70.3,61.4,68.1,65.0,61.4,100,85,67,30.02,29.89,6,4,27,0.00
2013-9-10,88.0,74.9,61.6,71.1,66.4,61.6,100,77,54,29.91,29.74,7,5,22,0.00
2013-9-11,91.2,76.3,66.1,72.5,65.0,60.6,92,70,46,29.92,29.79,8,4,34,0.00
2013-9-12,81.1,67.4,57.8,69.2,62.7,57.8,100,87,63,29.99,29.89,4,3,20,0.00
2013-9-13,74.2,65.1,56.3,68.1,62.7,56.3,100,92,80,29.96,29.82,5,3,37,0.00
2013-9-14,75.4,65.1,60.5,68.6,63.2,60.5,100,94,73,29.83,29.70,4,3,39,0.00
2013-9-15,66.1,62.4,59.0,64.0,61.0,59.0,100,95,85,29.88,29.72,10,5,21,0.01
2013-9-16,68.4,62.3,57.7,62.9,59.8,57.7,100,92,75,29.97,29.89,8,5,26,0.01
2013-9-17,66.3,61.3,57.2,60.7,55.8,53.3,100,83,63,30.00,29.85,10,4,22,0.00
2013-9-18,70.0,61.9,54.4,56.5,54.2,51.8,100,78,53,30.09,29.99,7,4,19,0.00
2013-9-19,77.1,62.3,49.5,60.4,54.4,49.5,100,78,43,29.98,29.77,4,2,27,0.00
2013-9-20,68.1,59.2,53.0,61.5,56.7,51.9,100,92,70,29.76,29.66,10,5,23,0.10
2013-9-21,63.2,59.0,55.6,60.9,57.3,54.6,100,94,76,29.78,29.68,10,5,24,0.03
2013-9-22,59.0,57.0,54.7,58.7,56.1,53.1,100,97,83,29.86,29.68,20,11,46,0.27
2013-9-23,60.1,57.2,55.2,59.5,57.0,55.2,100,99,93,29.99,29.87,10,7,30,0.10
2013-9-24,57.2,53.5,50.2,56.0,53.2,50.2,100,99,89,29.97,29.86,8,3,22,0.39
2013-9-25,58.6,52.9,48.6,51.8,50.2,47.6,100,91,69,30.02,29.85,5,4,37,0.01
2013-9-26,62.8,54.1,47.6,53.5,50.4,47.6,100,88,67,30.16,30.03,4,2,26,0.00
2013-9-27,55.2,52.0,48.2,54.6,51.7,48.2,100,99,95,30.17,29.94,15,10,34,0.20
2013-9-28,63.8,58.2,52.4,62.1,57.6,52.4,100,98,87,29.92,29.55,23,15,46,1.09
2013-9-29,56.4,54.3,52.6,56.4,54.2,52.6,100,99,95,29.69,29.42,22,15,43,1.37
2013-9-30,56.7,52.9,50.8,54.5,52.0,49.7,100,97,88,30.00,29.62,14,9,30,0.44